Time;durP1;ratioP1;P1;durP2;ratioP2;P2;SDS_P1;SDS_P2;PMS_P1;PMS_P2;Temp;Humidity;BMP_temperature;BMP_pressure;BME280_temperature;BME280_humidity;BME280_pressure;Samples;Min_cycle;Max_cycle;Signal;HPM_P1;HPM_P2
2021/10/17 00:00:09;;;;;;;1.40;1.30;;;10.00;99.90;;;;;;5071535;28;20618;-69
2021/10/17 00:02:35;;;;;;;3.20;1.50;;;10.00;99.90;;;;;;5071606;28;20231;-69
2021/10/17 00:05:01;;;;;;;3.93;1.50;;;10.00;99.90;;;;;;5071547;28;20946;-69
2021/10/17 00:07:26;;;;;;;1.27;1.13;;;10.00;99.90;;;;;;5090080;28;20804;-70
2021/10/17 00:09:52;;;;;;;3.83;1.10;;;9.90;99.90;;;;;;5091772;28;20165;-70
2021/10/17 00:12:17;;;;;;;1.60;1.50;;;9.90;99.90;;;;;;5092242;28;20174;-70
2021/10/17 00:14:43;;;;;;;2.73;1.33;;;9.90;99.90;;;;;;5093280;28;20256;-71
2021/10/17 00:17:08;;;;;;;1.30;1.20;;;9.90;99.90;;;;;;5093132;28;20565;-70
2021/10/17 00:19:35;;;;;;;3.33;1.10;;;9.90;99.90;;;;;;5093199;28;20200;-70
2021/10/17 00:22:00;;;;;;;1.30;1.20;;;9.90;99.90;;;;;;5093538;28;20174;-70
2021/10/17 00:24:26;;;;;;;1.67;1.27;;;9.90;99.90;;;;;;5091618;28;20707;-71
2021/10/17 00:26:51;;;;;;;1.40;1.27;;;9.90;99.90;;;;;;5093031;28;20212;-69
2021/10/17 00:29:20;;;;;;;1.33;1.23;;;9.90;99.90;;;;;;5093104;28;20161;-71
2021/10/17 00:31:45;;;;;;;4.73;1.70;;;9.90;99.90;;;;;;5092392;28;20252;-70
2021/10/17 00:34:11;;;;;;;1.10;1.00;;;9.90;99.90;;;;;;5093364;28;20496;-70
2021/10/17 00:36:36;;;;;;;3.03;2.33;;;9.90;99.90;;;;;;5093196;28;20181;-70
2021/10/17 00:39:04;;;;;;;1.87;1.63;;;9.90;99.90;;;;;;5092701;28;20176;-69
2021/10/17 00:41:31;;;;;;;3.00;1.30;;;9.90;99.90;;;;;;5093035;28;20560;-70
2021/10/17 00:44:00;;;;;;;3.23;1.10;;;9.90;99.90;;;;;;5092748;28;20450;-70
2021/10/17 00:46:26;;;;;;;1.30;1.20;;;9.90;99.90;;;;;;5092912;28;20988;-70
2021/10/17 00:48:51;;;;;;;3.03;1.27;;;9.90;99.90;;;;;;5092462;28;20447;-70
2021/10/17 00:51:16;;;;;;;1.87;1.20;;;9.90;99.90;;;;;;5092810;28;20165;-70
2021/10/17 00:53:43;;;;;;;1.20;1.10;;;9.90;99.90;;;;;;5093012;28;20177;-69
2021/10/17 00:56:09;;;;;;;1.20;1.10;;;9.80;99.90;;;;;;5093314;28;20248;-70
2021/10/17 00:58:35;;;;;;;2.43;1.10;;;9.80;99.90;;;;;;5093295;28;20490;-70
2021/10/17 01:01:01;;;;;;;2.07;1.43;;;9.80;99.90;;;;;;5093179;28;20407;-70
2021/10/17 01:03:27;;;;;;;1.63;1.00;;;9.80;99.90;;;;;;5093128;28;20500;-72
2021/10/17 01:05:56;;;;;;;2.10;1.20;;;9.80;99.90;;;;;;5092859;28;20196;-68
2021/10/17 01:08:22;;;;;;;1.20;0.90;;;9.80;99.90;;;;;;5092473;28;20452;-71
2021/10/17 01:10:53;;;;;;;2.17;1.23;;;9.80;99.90;;;;;;5091394;28;20407;-70
2021/10/17 01:13:23;;;;;;;1.47;1.13;;;9.80;99.90;;;;;;5091482;28;20432;-70
2021/10/17 01:15:54;;;;;;;1.30;1.20;;;9.80;99.90;;;;;;5092609;28;20488;-69
2021/10/17 01:18:21;;;;;;;2.07;1.37;;;9.80;99.90;;;;;;5085864;28;20455;-70
2021/10/17 01:20:47;;;;;;;1.33;1.23;;;9.80;99.90;;;;;;5086479;28;20419;-70
2021/10/17 01:23:14;;;;;;;1.03;0.93;;;9.70;99.90;;;;;;5090195;28;20449;-69
2021/10/17 01:25:39;;;;;;;2.50;1.90;;;9.70;99.90;;;;;;5089439;28;20925;-69
2021/10/17 01:28:05;;;;;;;2.70;1.47;;;9.70;99.90;;;;;;5090113;28;20432;-70
2021/10/17 01:30:31;;;;;;;1.67;1.10;;;9.70;99.90;;;;;;5088834;28;20624;-70
2021/10/17 01:32:57;;;;;;;1.40;1.30;;;9.70;99.90;;;;;;5090654;28;20223;-70
2021/10/17 01:35:24;;;;;;;1.20;1.10;;;9.70;99.90;;;;;;5091065;28;20432;-70
2021/10/17 01:37:49;;;;;;;1.10;1.00;;;9.70;99.90;;;;;;5091426;28;20439;-68
2021/10/17 01:40:15;;;;;;;1.13;1.07;;;9.70;99.90;;;;;;5091226;28;20181;-69
2021/10/17 01:42:41;;;;;;;1.70;1.40;;;9.70;99.90;;;;;;5093742;28;20176;-70
2021/10/17 01:45:07;;;;;;;1.13;1.03;;;9.70;99.90;;;;;;5094507;28;20783;-70
2021/10/17 01:47:33;;;;;;;1.10;1.10;;;9.70;99.90;;;;;;5094580;28;20189;-70
2021/10/17 01:49:58;;;;;;;3.13;1.47;;;9.60;99.90;;;;;;5094617;28;20412;-70
2021/10/17 01:52:24;;;;;;;1.83;1.10;;;9.70;99.90;;;;;;5094355;28;20203;-69
2021/10/17 01:54:49;;;;;;;1.33;0.93;;;9.60;99.90;;;;;;5094226;28;20177;-70
2021/10/17 01:57:15;;;;;;;1.33;1.23;;;9.60;99.90;;;;;;5094195;28;20703;-70
2021/10/17 01:59:40;;;;;;;7.33;1.30;;;9.60;99.90;;;;;;5094350;28;20228;-70
2021/10/17 02:02:05;;;;;;;3.93;1.80;;;9.60;99.90;;;;;;5094827;28;20188;-70
2021/10/17 02:04:31;;;;;;;1.30;1.20;;;9.60;99.90;;;;;;5093733;28;20215;-70
2021/10/17 02:06:56;;;;;;;1.93;1.57;;;9.60;99.90;;;;;;5094116;28;20217;-70
2021/10/17 02:09:22;;;;;;;2.27;1.73;;;9.50;99.90;;;;;;5094155;28;20218;-70
2021/10/17 02:11:47;;;;;;;2.17;1.40;;;9.60;99.90;;;;;;5093793;28;20569;-70
2021/10/17 02:14:13;;;;;;;1.47;1.17;;;9.60;99.90;;;;;;5093423;28;20856;-70
2021/10/17 02:16:38;;;;;;;1.43;1.27;;;9.60;99.90;;;;;;5093637;28;20184;-69
2021/10/17 02:19:04;;;;;;;1.77;1.20;;;9.50;99.90;;;;;;5093366;28;20228;-71
2021/10/17 02:21:29;;;;;;;1.40;1.30;;;9.60;99.90;;;;;;5093532;28;20172;-71
2021/10/17 02:23:55;;;;;;;2.10;1.53;;;9.50;99.90;;;;;;5093804;28;20200;-70
2021/10/17 02:26:20;;;;;;;1.40;1.30;;;9.50;99.90;;;;;;5093057;28;20657;-71
2021/10/17 02:28:46;;;;;;;1.30;1.23;;;9.60;99.90;;;;;;5093155;28;20173;-71
2021/10/17 02:31:11;;;;;;;2.50;1.30;;;9.50;99.90;;;;;;5094117;28;20682;-70
2021/10/17 02:33:39;;;;;;;2.10;1.13;;;9.60;99.90;;;;;;5093393;28;20162;-69
2021/10/17 02:36:04;;;;;;;1.10;1.10;;;9.60;99.90;;;;;;5093693;28;20651;-71
2021/10/17 02:38:30;;;;;;;2.83;1.70;;;9.60;99.90;;;;;;5093367;28;20424;-70
2021/10/17 02:40:56;;;;;;;1.53;1.43;;;9.60;99.90;;;;;;5093614;28;20773;-70
2021/10/17 02:43:21;;;;;;;1.40;1.30;;;9.60;99.90;;;;;;5093667;28;20281;-69
2021/10/17 02:45:47;;;;;;;3.13;1.80;;;9.60;99.90;;;;;;5093852;28;20603;-71
2021/10/17 02:48:12;;;;;;;1.47;1.33;;;9.60;99.90;;;;;;5093637;28;20192;-69
2021/10/17 02:50:38;;;;;;;1.20;1.10;;;9.60;99.90;;;;;;5093465;28;20170;-69
2021/10/17 02:53:03;;;;;;;1.73;1.50;;;9.60;99.90;;;;;;5092122;28;20170;-69
2021/10/17 02:55:29;;;;;;;1.10;1.00;;;9.50;99.90;;;;;;5092929;28;20667;-70
2021/10/17 02:57:54;;;;;;;1.57;1.03;;;9.50;99.90;;;;;;5092605;28;20454;-69
2021/10/17 03:00:20;;;;;;;1.67;1.40;;;9.50;99.90;;;;;;5093068;28;20204;-70
2021/10/17 03:02:46;;;;;;;2.73;1.63;;;9.50;99.90;;;;;;5092941;28;20166;-69
2021/10/17 03:05:11;;;;;;;1.57;1.47;;;9.50;99.90;;;;;;5092594;28;20160;-71
2021/10/17 03:07:37;;;;;;;1.37;1.27;;;9.60;99.90;;;;;;5092665;28;20242;-71
2021/10/17 03:10:03;;;;;;;1.60;1.50;;;9.60;99.90;;;;;;5093023;28;20169;-70
2021/10/17 03:12:28;;;;;;;1.23;1.13;;;9.60;99.90;;;;;;5093060;28;20689;-70
2021/10/17 03:14:54;;;;;;;2.13;1.40;;;9.60;99.90;;;;;;5092753;28;20505;-70
2021/10/17 03:17:19;;;;;;;1.70;1.37;;;9.50;99.90;;;;;;5093008;28;20680;-70
2021/10/17 03:19:44;;;;;;;1.13;1.03;;;9.50;99.90;;;;;;5092205;28;20207;-70
2021/10/17 03:22:10;;;;;;;1.97;1.37;;;9.50;99.90;;;;;;5091542;28;20176;-71
2021/10/17 03:24:35;;;;;;;1.30;1.20;;;9.50;99.90;;;;;;5092867;28;20429;-70
2021/10/17 03:27:01;;;;;;;1.10;1.00;;;9.50;99.90;;;;;;5091746;28;20212;-70
2021/10/17 03:29:26;;;;;;;2.23;1.50;;;9.50;99.90;;;;;;5092085;28;20204;-69
2021/10/17 03:31:52;;;;;;;3.97;1.30;;;9.40;99.90;;;;;;5092323;28;20658;-70
2021/10/17 03:34:17;;;;;;;3.07;2.07;;;9.40;99.90;;;;;;5092074;28;20175;-70
2021/10/17 03:36:43;;;;;;;1.20;1.10;;;9.30;99.90;;;;;;5092608;28;20225;-70
2021/10/17 03:39:08;;;;;;;1.67;1.57;;;9.20;99.90;;;;;;5091994;28;20238;-70
2021/10/17 03:41:33;;;;;;;1.57;1.43;;;9.20;99.90;;;;;;5091980;28;20182;-70
2021/10/17 03:43:59;;;;;;;1.70;1.30;;;9.00;99.90;;;;;;5091621;28;20251;-70
2021/10/17 03:46:25;;;;;;;1.30;0.97;;;9.00;99.90;;;;;;5091441;28;20185;-70
2021/10/17 03:48:50;;;;;;;2.00;1.40;;;8.90;99.90;;;;;;5091873;28;20202;-70
2021/10/17 03:51:16;;;;;;;1.37;1.27;;;8.90;99.90;;;;;;5091577;28;20206;-70
2021/10/17 03:53:42;;;;;;;1.77;1.60;;;8.80;99.90;;;;;;5091990;28;20168;-70
2021/10/17 03:56:08;;;;;;;4.60;2.20;;;8.70;99.90;;;;;;5091739;28;20718;-69
2021/10/17 03:58:34;;;;;;;8.23;1.80;;;8.70;99.90;;;;;;5091316;28;20215;-70
2021/10/17 04:00:59;;;;;;;2.30;1.27;;;8.70;99.90;;;;;;5091624;28;20514;-69
2021/10/17 04:03:25;;;;;;;1.33;1.23;;;8.60;99.90;;;;;;5091047;28;20268;-70
2021/10/17 04:05:50;;;;;;;2.80;1.63;;;8.60;99.90;;;;;;5091337;28;20165;-70
2021/10/17 04:08:16;;;;;;;6.90;1.80;;;8.50;99.90;;;;;;5090678;28;20183;-70
2021/10/17 04:10:41;;;;;;;1.53;1.43;;;8.50;99.90;;;;;;5090872;28;20539;-71
2021/10/17 04:13:06;;;;;;;1.30;1.20;;;8.40;99.90;;;;;;5090794;28;20229;-70
2021/10/17 04:15:35;;;;;;;1.40;1.30;;;8.40;99.90;;;;;;5091229;28;20181;-70
2021/10/17 04:18:01;;;;;;;1.20;1.10;;;8.30;99.90;;;;;;5090805;28;20277;-71
2021/10/17 04:20:27;;;;;;;1.90;1.80;;;8.20;99.90;;;;;;5091396;28;20460;-71
2021/10/17 04:22:52;;;;;;;1.90;1.20;;;8.10;99.90;;;;;;5090850;28;20444;-70
2021/10/17 04:25:18;;;;;;;2.30;1.27;;;8.10;99.90;;;;;;5090575;28;20227;-70
2021/10/17 04:27:43;;;;;;;1.70;1.50;;;8.10;99.90;;;;;;5090682;28;20736;-70
2021/10/17 04:30:09;;;;;;;2.67;1.23;;;8.10;99.90;;;;;;5090803;28;20174;-70
2021/10/17 04:32:34;;;;;;;3.80;1.43;;;8.10;99.90;;;;;;5090537;28;20175;-70
2021/10/17 04:35:00;;;;;;;2.30;1.30;;;8.00;99.90;;;;;;5090582;28;20224;-70
2021/10/17 04:37:28;;;;;;;2.33;1.63;;;8.00;99.90;;;;;;5090969;28;20719;-70
2021/10/17 04:39:53;;;;;;;2.27;1.10;;;7.90;99.90;;;;;;5090826;28;20168;-70
2021/10/17 04:42:19;;;;;;;2.77;1.40;;;7.90;99.90;;;;;;5090270;28;20443;-70
2021/10/17 04:44:44;;;;;;;1.40;1.30;;;7.90;99.90;;;;;;5090125;28;20251;-72
2021/10/17 04:47:10;;;;;;;1.20;1.10;;;7.90;99.90;;;;;;5090696;28;20190;-70
2021/10/17 04:49:35;;;;;;;2.03;1.93;;;7.90;99.90;;;;;;5090788;28;20199;-69
2021/10/17 04:52:00;;;;;;;2.83;1.57;;;7.90;99.90;;;;;;5090612;28;20173;-70
2021/10/17 04:54:26;;;;;;;1.13;1.03;;;7.90;99.90;;;;;;5089221;28;20769;-70
2021/10/17 04:56:51;;;;;;;1.30;1.20;;;7.80;99.90;;;;;;5090559;28;20196;-70
2021/10/17 04:59:21;;;;;;;1.07;1.03;;;7.70;99.90;;;;;;5090656;28;20162;-68
2021/10/17 05:01:46;;;;;;;1.60;1.50;;;7.70;99.90;;;;;;5090358;28;20159;-69
2021/10/17 05:04:12;;;;;;;5.33;1.27;;;7.60;99.90;;;;;;5090488;28;20454;-70
2021/10/17 05:06:37;;;;;;;1.67;1.17;;;7.60;99.90;;;;;;5090482;28;20185;-71
2021/10/17 05:09:03;;;;;;;1.40;1.30;;;7.60;99.90;;;;;;5090357;28;20647;-70
2021/10/17 05:11:29;;;;;;;1.43;1.30;;;7.60;99.90;;;;;;5090387;28;20169;-70
2021/10/17 05:13:55;;;;;;;3.53;1.60;;;7.50;99.90;;;;;;5090523;28;20174;-69
2021/10/17 05:16:20;;;;;;;1.37;1.20;;;7.50;99.90;;;;;;5091233;28;20416;-69
2021/10/17 05:18:46;;;;;;;1.47;1.03;;;7.50;99.90;;;;;;5094384;28;20182;-69
2021/10/17 05:21:11;;;;;;;1.40;1.20;;;7.50;99.90;;;;;;5094211;28;20176;-70
2021/10/17 05:23:37;;;;;;;2.07;1.30;;;7.50;99.90;;;;;;5093877;28;20573;-69
2021/10/17 05:26:03;;;;;;;1.40;1.23;;;7.50;99.90;;;;;;5093080;28;20169;-69
2021/10/17 05:28:29;;;;;;;0.90;0.90;;;7.40;99.90;;;;;;5094244;28;20173;-69
2021/10/17 05:30:55;;;;;;;1.97;1.53;;;7.50;99.90;;;;;;5093909;28;20411;-70
2021/10/17 05:33:21;;;;;;;1.30;1.00;;;7.50;99.90;;;;;;5093759;28;20411;-69
2021/10/17 05:35:46;;;;;;;3.60;1.67;;;7.50;99.90;;;;;;5093828;28;20598;-69
2021/10/17 05:38:12;;;;;;;3.90;1.50;;;7.40;99.90;;;;;;5093822;28;20265;-71
2021/10/17 05:40:37;;;;;;;1.77;0.97;;;7.50;99.90;;;;;;5093627;28;20174;-70
2021/10/17 05:43:03;;;;;;;2.97;1.53;;;7.50;99.90;;;;;;5093552;28;20554;-70
2021/10/17 05:45:28;;;;;;;1.30;1.20;;;7.50;99.90;;;;;;5093473;28;20644;-70
2021/10/17 05:47:54;;;;;;;1.50;1.40;;;7.70;99.90;;;;;;5094891;28;20183;-70
2021/10/17 05:50:19;;;;;;;1.30;1.20;;;7.70;99.90;;;;;;5093496;28;20253;-70
2021/10/17 05:52:44;;;;;;;3.67;1.97;;;7.70;99.90;;;;;;5074964;28;20187;-70
2021/10/17 05:55:11;;;;;;;1.27;1.17;;;7.80;99.90;;;;;;5093367;28;20271;-70
2021/10/17 05:57:38;;;;;;;2.27;1.37;;;7.80;99.90;;;;;;5093260;28;20196;-70
2021/10/17 06:00:05;;;;;;;3.03;1.50;;;7.80;99.90;;;;;;5093186;28;20408;-70
2021/10/17 06:02:31;;;;;;;1.43;1.33;;;8.00;99.90;;;;;;5093018;28;20507;-69
2021/10/17 06:04:56;;;;;;;2.33;1.27;;;8.10;99.90;;;;;;5093057;28;20547;-70
2021/10/17 06:07:22;;;;;;;1.20;1.10;;;8.20;99.90;;;;;;5093290;28;20243;-70
2021/10/17 06:09:47;;;;;;;2.00;1.00;;;8.20;99.90;;;;;;5093238;28;20209;-70
2021/10/17 06:12:13;;;;;;;1.70;1.20;;;8.30;99.90;;;;;;5093230;28;20174;-70
2021/10/17 06:14:38;;;;;;;1.20;1.07;;;8.40;99.90;;;;;;5093085;28;20165;-70
2021/10/17 06:17:04;;;;;;;2.27;1.10;;;8.40;99.90;;;;;;5091755;28;20250;-70
2021/10/17 06:19:29;;;;;;;2.80;1.33;;;8.40;99.90;;;;;;5093027;28;20189;-69
2021/10/17 06:21:55;;;;;;;1.93;1.33;;;8.40;99.90;;;;;;5093109;28;20690;-70
2021/10/17 06:24:20;;;;;;;1.93;1.20;;;8.40;99.90;;;;;;5093096;28;20203;-70
2021/10/17 06:26:46;;;;;;;6.03;1.40;;;8.50;99.90;;;;;;5093670;28;20196;-71
2021/10/17 06:29:12;;;;;;;1.23;0.90;;;8.50;99.90;;;;;;5092868;28;20177;-71
2021/10/17 06:31:39;;;;;;;3.20;1.47;;;8.50;99.90;;;;;;5093710;28;20177;-70
2021/10/17 06:34:05;;;;;;;1.93;1.10;;;8.60;99.90;;;;;;5093549;28;20450;-70
2021/10/17 06:36:31;;;;;;;1.80;1.33;;;8.60;99.90;;;;;;5093378;28;20479;-70
2021/10/17 06:38:56;;;;;;;1.40;1.10;;;8.60;99.90;;;;;;5093483;28;20413;-71
2021/10/17 06:41:22;;;;;;;1.17;1.07;;;8.70;99.90;;;;;;5093852;28;20414;-69
2021/10/17 06:43:47;;;;;;;1.53;1.37;;;8.70;99.90;;;;;;5093331;28;20256;-70
2021/10/17 06:46:14;;;;;;;2.90;1.30;;;8.70;99.90;;;;;;5091780;28;20221;-70
2021/10/17 06:48:39;;;;;;;1.20;1.10;;;8.80;99.90;;;;;;5093231;28;20179;-70
2021/10/17 06:51:05;;;;;;;1.53;1.30;;;8.80;99.90;;;;;;5092652;28;20394;-70
2021/10/17 06:53:30;;;;;;;1.20;1.10;;;8.90;99.90;;;;;;5092821;28;20582;-70
2021/10/17 06:55:56;;;;;;;1.70;1.43;;;8.90;99.90;;;;;;5092967;28;20174;-70
2021/10/17 06:58:21;;;;;;;2.57;1.70;;;8.90;99.90;;;;;;5092155;28;20277;-69
2021/10/17 07:00:47;;;;;;;1.37;1.27;;;9.00;99.90;;;;;;5073889;28;20222;-70
2021/10/17 07:03:12;;;;;;;2.10;1.37;;;9.10;99.90;;;;;;5092286;28;20189;-71
2021/10/17 07:05:38;;;;;;;1.63;1.27;;;9.10;99.90;;;;;;5093202;28;20772;-71
2021/10/17 07:08:04;;;;;;;1.63;1.53;;;9.10;99.90;;;;;;5093080;28;20185;-69
2021/10/17 07:10:29;;;;;;;3.43;1.10;;;9.10;99.90;;;;;;5091933;28;20158;-70
2021/10/17 07:12:54;;;;;;;2.07;1.00;;;9.10;99.90;;;;;;5092893;28;20172;-70
2021/10/17 07:15:20;;;;;;;1.43;0.97;;;9.10;99.90;;;;;;5091274;28;20578;-70
2021/10/17 07:17:45;;;;;;;2.07;1.40;;;9.20;99.90;;;;;;5092015;28;20204;-69
2021/10/17 07:20:11;;;;;;;2.20;1.37;;;9.20;99.90;;;;;;5092553;28;20254;-70
2021/10/17 07:22:36;;;;;;;1.90;1.77;;;9.40;99.90;;;;;;5090928;28;20208;-70
2021/10/17 07:25:02;;;;;;;2.17;1.23;;;9.50;99.90;;;;;;5092045;28;20191;-70
2021/10/17 07:27:27;;;;;;;2.17;1.30;;;9.50;99.90;;;;;;5091813;28;20697;-70
2021/10/17 07:29:53;;;;;;;1.57;1.00;;;9.60;99.90;;;;;;5092132;28;20533;-70
2021/10/17 07:32:19;;;;;;;1.53;1.07;;;9.70;99.90;;;;;;5092340;28;20157;-70
2021/10/17 07:34:44;;;;;;;1.30;1.20;;;9.70;99.90;;;;;;5092234;28;20158;-70
2021/10/17 07:37:10;;;;;;;1.30;1.20;;;9.80;99.90;;;;;;5092309;28;20193;-69
2021/10/17 07:39:35;;;;;;;1.70;1.60;;;9.90;99.90;;;;;;5090686;28;20525;-71
2021/10/17 07:42:02;;;;;;;1.77;1.33;;;9.90;99.90;;;;;;5091943;28;20636;-70
2021/10/17 07:44:27;;;;;;;2.90;1.60;;;9.90;99.90;;;;;;5091722;28;20232;-70
2021/10/17 07:46:53;;;;;;;1.40;1.30;;;9.90;99.90;;;;;;5091809;28;20459;-70
2021/10/17 07:49:18;;;;;;;3.80;1.53;;;10.00;99.90;;;;;;5091997;28;20172;-70
2021/10/17 07:51:43;;;;;;;2.03;1.50;;;10.00;99.90;;;;;;5091940;28;20173;-70
2021/10/17 07:54:10;;;;;;;1.87;1.40;;;9.80;99.90;;;;;;5092180;28;20177;-70
2021/10/17 07:56:36;;;;;;;1.17;1.07;;;9.80;99.90;;;;;;5091923;28;20208;-70
2021/10/17 07:59:02;;;;;;;1.37;1.27;;;9.90;99.90;;;;;;5091751;28;20404;-70
2021/10/17 08:01:27;;;;;;;2.60;1.33;;;10.00;99.90;;;;;;5091123;28;20733;-70
2021/10/17 08:03:52;;;;;;;2.43;1.60;;;9.90;99.90;;;;;;5091137;28;20660;-70
2021/10/17 08:06:18;;;;;;;1.63;1.53;;;10.00;99.90;;;;;;5091257;28;20276;-70
2021/10/17 08:08:43;;;;;;;2.80;1.50;;;9.90;99.90;;;;;;5091158;28;20223;-70
2021/10/17 08:11:09;;;;;;;2.90;2.00;;;10.00;99.90;;;;;;5091350;28;20177;-70
2021/10/17 08:13:34;;;;;;;1.83;1.30;;;10.20;99.90;;;;;;5091459;28;20537;-69
2021/10/17 08:16:00;;;;;;;5.17;2.13;;;10.20;99.90;;;;;;5083443;28;20182;-70
2021/10/17 08:18:26;;;;;;;2.70;1.93;;;10.10;99.90;;;;;;5071006;28;20827;-69
2021/10/17 08:20:52;;;;;;;2.70;2.10;;;10.20;99.90;;;;;;5071320;28;20178;-70
2021/10/17 08:23:18;;;;;;;2.23;1.97;;;10.20;99.90;;;;;;5071147;28;20444;-71
2021/10/17 08:25:43;;;;;;;1.70;1.60;;;10.40;99.90;;;;;;5071035;28;20891;-69
2021/10/17 08:28:13;;;;;;;2.13;1.47;;;10.50;99.90;;;;;;5070886;28;20429;-70
2021/10/17 08:30:39;;;;;;;1.57;1.27;;;10.50;99.90;;;;;;5071008;28;20245;-69
2021/10/17 08:33:05;;;;;;;2.50;1.67;;;10.50;99.90;;;;;;5071418;28;20543;-70
2021/10/17 08:35:30;;;;;;;1.67;1.37;;;10.60;99.90;;;;;;5071057;28;20412;-70
2021/10/17 08:37:56;;;;;;;2.53;1.37;;;10.60;99.90;;;;;;5070896;28;20213;-71
2021/10/17 08:40:22;;;;;;;3.67;1.80;;;10.70;99.90;;;;;;5071232;28;20171;-71
2021/10/17 08:42:47;;;;;;;3.40;1.73;;;11.00;99.90;;;;;;5078433;28;20412;-70
2021/10/17 08:45:13;;;;;;;4.23;1.83;;;11.00;99.90;;;;;;5091643;28;20793;-71
2021/10/17 08:47:39;;;;;;;1.80;1.70;;;11.00;99.90;;;;;;5091581;28;20733;-70
2021/10/17 08:50:07;;;;;;;3.60;2.17;;;10.90;99.90;;;;;;5090844;28;20212;-70
2021/10/17 08:52:33;;;;;;;5.63;2.30;;;10.90;99.90;;;;;;5090218;28;20425;-70
2021/10/17 08:54:59;;;;;;;3.90;2.20;;;10.90;99.90;;;;;;5092904;28;20404;-70
2021/10/17 08:57:24;;;;;;;2.90;1.47;;;10.80;99.90;;;;;;5092102;28;20197;-70
2021/10/17 08:59:51;;;;;;;2.50;1.63;;;10.90;99.90;;;;;;5092479;28;20399;-69
2021/10/17 09:02:19;;;;;;;3.03;1.73;;;11.00;99.90;;;;;;5091399;28;20174;-69
2021/10/17 09:05:01;;;;;;;2.33;1.80;;;11.10;99.90;;;;;;5090138;28;20470;-70
2021/10/17 09:07:27;;;;;;;2.57;2.07;;;11.30;99.90;;;;;;5088850;28;20455;-71
2021/10/17 09:10:12;;;;;;;8.80;2.17;;;11.60;99.90;;;;;;5090015;28;20435;-70
2021/10/17 09:12:40;;;;;;;1.60;1.50;;;11.70;99.90;;;;;;5090198;28;20161;-69
2021/10/17 09:15:21;;;;;;;2.40;1.70;;;11.90;99.90;;;;;;5089897;28;20922;-70
2021/10/17 09:18:10;;;;;;;1.80;1.20;;;12.50;99.90;;;;;;5089575;28;20435;-68
2021/10/17 09:20:52;;;;;;;2.07;1.60;;;13.10;99.90;;;;;;5092921;28;20502;-69
2021/10/17 09:23:21;;;;;;;1.97;1.40;;;12.90;99.90;;;;;;5091952;28;20455;-70
2021/10/17 09:25:47;;;;;;;1.40;1.10;;;13.00;99.90;;;;;;5092447;28;20420;-70
2021/10/17 09:28:20;;;;;;;2.90;1.23;;;12.90;99.90;;;;;;5091827;28;20427;-71
2021/10/17 09:31:18;;;;;;;1.97;1.40;;;13.10;99.90;;;;;;5091915;28;20458;-70
2021/10/17 09:33:53;;;;;;;1.97;1.30;;;13.20;99.90;;;;;;5091022;28;20415;-69
2021/10/17 09:36:20;;;;;;;1.27;1.13;;;12.80;99.90;;;;;;5091554;28;20462;-72
2021/10/17 09:38:48;;;;;;;1.23;1.13;;;12.70;99.90;;;;;;5091124;28;20419;-69
2021/10/17 09:41:19;;;;;;;1.70;1.60;;;12.80;99.90;;;;;;5091274;28;20407;-69
2021/10/17 09:43:56;;;;;;;3.40;1.63;;;13.00;99.90;;;;;;5092225;28;20547;-70
2021/10/17 09:46:23;;;;;;;2.40;1.53;;;12.60;99.90;;;;;;5094019;28;20488;-69
2021/10/17 09:48:49;;;;;;;2.27;1.63;;;12.70;99.90;;;;;;5092361;28;20417;-70
2021/10/17 09:51:21;;;;;;;4.03;2.00;;;13.00;99.90;;;;;;5092337;28;20399;-69
2021/10/17 09:53:50;;;;;;;1.63;1.43;;;12.80;99.90;;;;;;5098226;28;20507;-69
2021/10/17 09:56:36;;;;;;;1.60;1.50;;;12.50;99.90;;;;;;5092574;28;20450;-69
2021/10/17 09:59:04;;;;;;;2.70;1.53;;;12.50;99.90;;;;;;5092582;28;20404;-70
2021/10/17 10:01:31;;;;;;;1.50;1.27;;;12.60;99.90;;;;;;5092333;28;20414;-70
2021/10/17 10:03:58;;;;;;;1.50;1.20;;;12.50;99.90;;;;;;5095436;28;20455;-71
2021/10/17 10:06:25;;;;;;;1.50;1.40;;;12.60;99.90;;;;;;5095440;28;20430;-70
2021/10/17 10:08:56;;;;;;;2.07;1.37;;;12.50;99.90;;;;;;5095787;28;20411;-70
2021/10/17 10:11:24;;;;;;;2.40;1.73;;;12.60;99.90;;;;;;5095370;28;20406;-69
2021/10/17 10:13:51;;;;;;;2.47;1.43;;;12.50;99.90;;;;;;5095067;28;20414;-70
2021/10/17 10:16:20;;;;;;;4.03;1.50;;;12.60;99.90;;;;;;5094325;28;20431;-70
2021/10/17 10:18:47;;;;;;;2.53;1.53;;;12.80;99.90;;;;;;5094634;28;20821;-69
2021/10/17 10:21:13;;;;;;;2.00;1.73;;;12.90;99.90;;;;;;5095167;28;20458;-70
2021/10/17 10:23:40;;;;;;;3.20;1.40;;;13.00;99.90;;;;;;5093990;28;20479;-70
2021/10/17 10:26:06;;;;;;;1.20;1.10;;;13.10;99.90;;;;;;5093082;28;20173;-69
2021/10/17 10:28:31;;;;;;;2.07;1.60;;;13.40;99.90;;;;;;5094436;28;20442;-70
2021/10/17 10:30:57;;;;;;;4.10;1.70;;;13.60;99.90;;;;;;5093073;28;20409;-70
2021/10/17 10:33:24;;;;;;;2.27;1.53;;;13.50;99.90;;;;;;5094164;28;20584;-71
2021/10/17 10:36:02;;;;;;;7.50;1.30;;;13.40;99.90;;;;;;5094041;28;20249;-69
2021/10/17 10:38:52;;;;;;;1.30;1.17;;;13.30;99.90;;;;;;5094589;28;20411;-69
2021/10/17 10:41:21;;;;;;;1.80;1.40;;;13.20;99.90;;;;;;5092626;28;20407;-72
2021/10/17 10:43:46;;;;;;;2.57;1.70;;;13.40;99.90;;;;;;5095236;28;20443;-71
2021/10/17 10:46:25;;;;;;;2.37;1.30;;;13.80;99.90;;;;;;5092734;28;20418;-70
2021/10/17 10:48:51;;;;;;;2.50;2.00;;;14.00;99.90;;;;;;5093590;28;20226;-69
2021/10/17 10:51:46;;;;;;;1.63;1.07;;;13.90;99.90;;;;;;5093868;28;20398;-70
2021/10/17 10:54:23;;;;;;;2.20;2.00;;;14.00;99.90;;;;;;5093083;28;20560;-70
2021/10/17 10:56:50;;;;;;;1.47;1.20;;;13.90;99.90;;;;;;5093406;28;20505;-70
2021/10/17 10:59:18;;;;;;;2.07;1.30;;;13.60;99.90;;;;;;5092521;28;20934;-70
2021/10/17 11:02:10;;;;;;;1.57;1.30;;;13.80;99.90;;;;;;5093451;28;20409;-71
2021/10/17 11:04:55;;;;;;;1.60;1.50;;;13.80;99.90;;;;;;5091483;28;20464;-71
2021/10/17 11:07:27;;;;;;;1.50;1.23;;;13.70;99.90;;;;;;5093808;28;20988;-70
2021/10/17 11:09:54;;;;;;;2.67;1.50;;;13.10;99.90;;;;;;5095133;28;20927;-71
2021/10/17 11:12:41;;;;;;;1.43;1.20;;;13.30;99.90;;;;;;5075948;28;20469;-70
2021/10/17 11:15:12;;;;;;;3.70;1.37;;;13.40;99.90;;;;;;5094726;28;20934;-71
2021/10/17 11:18:03;;;;;;;2.67;1.53;;;13.10;99.90;;;;;;5095066;28;20431;-70
2021/10/17 11:20:32;;;;;;;1.70;1.50;;;13.30;99.90;;;;;;5095077;28;20494;-70
2021/10/17 11:22:59;;;;;;;2.80;1.60;;;13.30;99.90;;;;;;5094057;28;20392;-69
2021/10/17 11:25:26;;;;;;;4.87;1.20;;;13.60;99.90;;;;;;5094155;28;20410;-69
2021/10/17 11:27:53;;;;;;;5.20;1.47;;;13.40;99.90;;;;;;5093836;28;20416;-70
2021/10/17 11:30:28;;;;;;;5.53;1.67;;;13.60;99.90;;;;;;5093790;28;20401;-69
2021/10/17 11:32:55;;;;;;;3.00;1.30;;;13.50;99.90;;;;;;5094051;28;20427;-70
2021/10/17 11:35:34;;;;;;;1.60;1.10;;;13.90;99.90;;;;;;5093141;28;20404;-70
2021/10/17 11:38:01;;;;;;;1.50;1.17;;;14.20;99.90;;;;;;5092871;28;20502;-70
2021/10/17 11:40:28;;;;;;;1.83;1.33;;;14.40;99.90;;;;;;5092863;28;20441;-70
2021/10/17 11:43:05;;;;;;;1.97;1.20;;;14.40;99.90;;;;;;5092479;28;20405;-71
2021/10/17 11:45:36;;;;;;;2.90;2.10;;;14.10;99.90;;;;;;5091792;28;20415;-69
2021/10/17 11:48:07;;;;;;;7.43;2.93;;;14.10;99.90;;;;;;5093173;28;20420;-71
2021/10/17 11:50:38;;;;;;;1.57;1.40;;;14.00;99.90;;;;;;5092954;28;20401;-70
2021/10/17 11:53:10;;;;;;;2.10;1.50;;;14.30;99.90;;;;;;5091057;28;20431;-74
2021/10/17 11:55:48;;;;;;;2.93;1.70;;;14.10;99.90;;;;;;5092870;28;20396;-71
2021/10/17 11:58:22;;;;;;;1.43;1.33;;;13.90;99.90;;;;;;5092369;28;20437;-69
2021/10/17 12:00:49;;;;;;;1.43;1.33;;;13.70;99.90;;;;;;5091145;28;20540;-71
2021/10/17 12:03:19;;;;;;;2.00;1.80;;;14.00;99.90;;;;;;5092035;28;20547;-71
2021/10/17 12:05:46;;;;;;;1.60;1.40;;;13.60;99.90;;;;;;5091632;28;20400;-73
2021/10/17 12:08:20;;;;;;;1.40;1.10;;;13.30;99.90;;;;;;5091200;28;20415;-72
2021/10/17 12:10:58;;;;;;;3.13;1.97;;;13.40;99.90;;;;;;5091838;28;20407;-73
2021/10/17 12:13:24;;;;;;;2.80;1.33;;;13.60;99.90;;;;;;5092160;28;20504;-73
2021/10/17 12:16:04;;;;;;;2.10;1.80;;;13.90;99.90;;;;;;5092085;28;20401;-75
2021/10/17 12:18:31;;;;;;;2.97;1.63;;;14.20;99.90;;;;;;5092060;28;20481;-73
2021/10/17 12:20:57;;;;;;;3.90;2.33;;;14.00;99.90;;;;;;5093568;28;20432;-72
2021/10/17 12:23:23;;;;;;;1.70;1.60;;;13.60;99.90;;;;;;5095924;28;20445;-73
2021/10/17 12:25:48;;;;;;;2.17;1.50;;;13.60;99.90;;;;;;5094770;28;20498;-72
2021/10/17 12:28:18;;;;;;;2.83;1.47;;;13.30;99.90;;;;;;5093703;28;20741;-69
2021/10/17 12:30:48;;;;;;;2.23;1.53;;;13.60;99.90;;;;;;5095669;28;20177;-69
2021/10/17 12:33:24;;;;;;;6.00;2.70;;;13.90;99.90;;;;;;5095045;28;20436;-70
2021/10/17 12:35:49;;;;;;;2.07;1.87;;;13.60;99.90;;;;;;5094336;28;20445;-71
2021/10/17 12:38:15;;;;;;;1.63;1.43;;;13.50;99.90;;;;;;5095363;28;20420;-72
2021/10/17 12:40:57;;;;;;;2.50;1.53;;;13.50;99.90;;;;;;5095146;28;20201;-72
2021/10/17 12:43:30;;;;;;;2.47;1.80;;;13.90;99.90;;;;;;5093063;28;20456;-71
2021/10/17 12:46:07;;;;;;;3.30;1.70;;;14.00;99.90;;;;;;5103289;28;20411;-72
2021/10/17 12:48:35;;;;;;;4.00;1.80;;;13.80;99.90;;;;;;5102678;28;20495;-71
2021/10/17 12:51:00;;;;;;;1.47;1.37;;;13.50;99.90;;;;;;5101636;28;20407;-74
2021/10/17 12:53:26;;;;;;;2.23;2.00;;;13.50;99.90;;;;;;5095035;28;20413;-72